TUI2EM EDDV-LGIR
Flight info
| Callsign | TUI2EM |
|---|---|
| Flight time | N/A |
| Altitude | 39000 |
| Route | POVEL3Y POVEL Z94 GALMA M736 RELKO DCT ALOSO DCT ABERU DCT ARMUT DCT LAMSI DCT RADLY DCT PODET DCT KOMAR DCT EDALA DCT GACMO DCT POD DCT PINDO UL607 GIVIS T514 XAVIS |
| Aircraft | B737/M-SDE2E3FGHIRWXY/LB1 |
Departure
| Time | 2026-05-05 11:33 |
|---|---|
| Airport | Hannover Airport (EDDV) |
Arrival
| Time | N/A |
|---|---|
| Airport | Heraklion International Nikos Kazantzakis Airport (LGIR) |
| Time | Latitude | Longitude | Altitude | Speed | Heading |
|---|---|---|---|---|---|
| 2026-05-05 11:06 | 52.45766 | 9.70123 | 190 ft | 0 kts | 308° |
| 2026-05-05 11:06 | 52.45765 | 9.70124 | 206 ft | 0 kts | 308° |
| 2026-05-05 11:20 | 52.45760 | 9.70134 | 190 ft | 4 kts | 308° |
| 2026-05-05 11:21 | 52.45743 | 9.70168 | 198 ft | 4 kts | 313° |
| 2026-05-05 11:21 | 52.45729 | 9.70193 | 197 ft | 4 kts | 312° |
| 2026-05-05 11:21 | 52.45710 | 9.70223 | 206 ft | 4 kts | 334° |
| 2026-05-05 11:21 | 52.45689 | 9.70237 | 193 ft | 4 kts | 334° |
| 2026-05-05 11:22 | 52.45667 | 9.70259 | 206 ft | 4 kts | 309° |
| 2026-05-05 11:22 | 52.45659 | 9.70292 | 204 ft | 3 kts | 272° |
| 2026-05-05 11:22 | 52.45658 | 9.70322 | 204 ft | 0 kts | 272° |
| 2026-05-05 11:26 | 52.45659 | 9.70287 | 190 ft | 8 kts | 272° |
| 2026-05-05 11:26 | 52.45663 | 9.70143 | 190 ft | 17 kts | 273° |
| 2026-05-05 11:26 | 52.45670 | 9.69910 | 201 ft | 24 kts | 273° |
| 2026-05-05 11:27 | 52.45677 | 9.69681 | 190 ft | 23 kts | 273° |
| 2026-05-05 11:27 | 52.45704 | 9.69486 | 200 ft | 22 kts | 292° |
| 2026-05-05 11:27 | 52.45758 | 9.69257 | 203 ft | 21 kts | 287° |
| 2026-05-05 11:27 | 52.45795 | 9.69111 | 195 ft | 21 kts | 303° |
| 2026-05-05 11:28 | 52.45860 | 9.68999 | 195 ft | 20 kts | 322° |
| 2026-05-05 11:29 | 52.45929 | 9.68922 | 192 ft | 19 kts | 323° |
| 2026-05-05 11:29 | 52.46030 | 9.68791 | 190 ft | 20 kts | 321° |
| 2026-05-05 11:29 | 52.46160 | 9.68624 | 197 ft | 29 kts | 322° |
| 2026-05-05 11:29 | 52.46342 | 9.68396 | 190 ft | 36 kts | 323° |
| 2026-05-05 11:30 | 52.46503 | 9.68159 | 197 ft | 30 kts | 295° |
| 2026-05-05 11:30 | 52.46531 | 9.67837 | 193 ft | 28 kts | 273° |
| 2026-05-05 11:30 | 52.46543 | 9.67528 | 190 ft | 27 kts | 270° |
| 2026-05-05 11:30 | 52.46547 | 9.67170 | 195 ft | 37 kts | 273° |
| 2026-05-05 11:31 | 52.46562 | 9.66694 | 196 ft | 46 kts | 273° |
| 2026-05-05 11:31 | 52.46575 | 9.66213 | 190 ft | 36 kts | 272° |
| 2026-05-05 11:31 | 52.46586 | 9.65813 | 190 ft | 35 kts | 272° |
| 2026-05-05 11:31 | 52.46589 | 9.65720 | 190 ft | 34 kts | 273° |
| 2026-05-05 11:32 | 52.46592 | 9.65588 | 190 ft | 34 kts | 272° |
| 2026-05-05 11:32 | 52.46636 | 9.65322 | 196 ft | 22 kts | 323° |
| 2026-05-05 11:32 | 52.46780 | 9.65315 | 183 ft | 21 kts | 33° |
| 2026-05-05 11:33 | 52.46820 | 9.65556 | 180 ft | 40 kts | 92° |
| 2026-05-05 11:33 | 52.46790 | 9.66554 | 185 ft | 135 kts | 93° |
| 2026-05-05 11:33 | 52.46744 | 9.68498 | 415 ft | 198 kts | 93° |
| 2026-05-05 11:33 | 52.46467 | 9.70813 | 1389 ft | 212 kts | 105° |
| 2026-05-05 11:34 | 52.46216 | 9.73294 | 2164 ft | 230 kts | 83° |
| 2026-05-05 11:34 | 52.46359 | 9.75860 | 3259 ft | 223 kts | 88° |
| 2026-05-05 11:34 | 52.46386 | 9.78445 | 4139 ft | 228 kts | 90° |
| 2026-05-05 11:34 | 52.46356 | 9.81101 | 4981 ft | 236 kts | 92° |
| 2026-05-05 11:35 | 52.46292 | 9.83788 | 6014 ft | 237 kts | 93° |
| 2026-05-05 11:35 | 52.46220 | 9.86484 | 6974 ft | 238 kts | 94° |
| 2026-05-05 11:35 | 52.46126 | 9.89214 | 7817 ft | 242 kts | 98° |
| 2026-05-05 11:35 | 52.45574 | 9.91840 | 8459 ft | 254 kts | 121° |
| 2026-05-05 11:36 | 52.44643 | 9.94473 | 8784 ft | 282 kts | 123° |
| 2026-05-05 11:36 | 52.43621 | 9.97282 | 9587 ft | 291 kts | 123° |
| 2026-05-05 11:36 | 52.42577 | 10.00154 | 10406 ft | 298 kts | 123° |
| 2026-05-05 11:36 | 52.41474 | 10.03198 | 10692 ft | 325 kts | 123° |
| 2026-05-05 11:37 | 52.40290 | 10.06481 | 11195 ft | 341 kts | 123° |
| 2026-05-05 11:37 | 52.39081 | 10.09860 | 11998 ft | 346 kts | 122° |
| 2026-05-05 11:37 | 52.37858 | 10.13288 | 12900 ft | 350 kts | 122° |
| 2026-05-05 11:37 | 52.36628 | 10.16740 | 13766 ft | 354 kts | 122° |
| 2026-05-05 11:38 | 52.35375 | 10.20255 | 14507 ft | 359 kts | 122° |
| 2026-05-05 11:38 | 52.34110 | 10.23800 | 15258 ft | 364 kts | 122° |
| 2026-05-05 11:38 | 52.32826 | 10.27398 | 16105 ft | 369 kts | 121° |
| 2026-05-05 11:38 | 52.31516 | 10.31059 | 16861 ft | 376 kts | 121° |
| 2026-05-05 11:39 | 52.30186 | 10.34769 | 17638 ft | 381 kts | 122° |
| 2026-05-05 11:39 | 52.28836 | 10.38526 | 18353 ft | 385 kts | 122° |
| 2026-05-05 11:39 | 52.27472 | 10.42322 | 19000 ft | 390 kts | 122° |
| 2026-05-05 11:39 | 52.26109 | 10.46109 | 19561 ft | 396 kts | 123° |
| 2026-05-05 11:40 | 52.24704 | 10.50004 | 20156 ft | 400 kts | 123° |
| 2026-05-05 11:40 | 52.23284 | 10.53937 | 20795 ft | 403 kts | 123° |
| 2026-05-05 11:40 | 52.21849 | 10.57907 | 21425 ft | 407 kts | 123° |
| 2026-05-05 11:40 | 52.20401 | 10.61903 | 22024 ft | 411 kts | 123° |
| 2026-05-05 11:41 | 52.18935 | 10.65947 | 22613 ft | 415 kts | 123° |
| 2026-05-05 11:41 | 52.17455 | 10.70025 | 23195 ft | 420 kts | 123° |
| 2026-05-05 11:41 | 52.15975 | 10.74092 | 23713 ft | 424 kts | 124° |
| 2026-05-05 11:41 | 52.14469 | 10.78222 | 24214 ft | 426 kts | 124° |
| 2026-05-05 11:42 | 52.12771 | 10.82173 | 24689 ft | 424 kts | 138° |
| 2026-05-05 11:42 | 52.10456 | 10.85050 | 25196 ft | 416 kts | 155° |
| 2026-05-05 11:42 | 52.07908 | 10.87265 | 25720 ft | 416 kts | 157° |
| 2026-05-05 11:42 | 52.05320 | 10.89421 | 26194 ft | 418 kts | 158° |
| 2026-05-05 11:43 | 52.02721 | 10.91586 | 26643 ft | 422 kts | 158° |
| 2026-05-05 11:43 | 52.00109 | 10.93788 | 27169 ft | 422 kts | 157° |
| 2026-05-05 11:43 | 51.97522 | 10.95997 | 27795 ft | 421 kts | 157° |
| 2026-05-05 11:43 | 51.94922 | 10.98230 | 28194 ft | 424 kts | 157° |
| 2026-05-05 11:44 | 51.92303 | 11.00484 | 28553 ft | 429 kts | 157° |
| 2026-05-05 11:44 | 51.89652 | 11.02763 | 28978 ft | 431 kts | 157° |
| 2026-05-05 11:44 | 51.86991 | 11.05046 | 29420 ft | 433 kts | 158° |
| 2026-05-05 11:44 | 51.84361 | 11.07300 | 29822 ft | 435 kts | 158° |
| 2026-05-05 11:45 | 51.81669 | 11.09607 | 30163 ft | 438 kts | 158° |
| 2026-05-05 11:45 | 51.78973 | 11.11916 | 30477 ft | 440 kts | 158° |
| 2026-05-05 11:45 | 51.76261 | 11.14238 | 30783 ft | 443 kts | 158° |
| 2026-05-05 11:45 | 51.73531 | 11.16571 | 31111 ft | 444 kts | 157° |
| 2026-05-05 11:46 | 51.70804 | 11.18902 | 31480 ft | 445 kts | 158° |
| 2026-05-05 11:46 | 51.68061 | 11.21241 | 31777 ft | 446 kts | 158° |
| 2026-05-05 11:46 | 51.65303 | 11.23590 | 32107 ft | 448 kts | 158° |
| 2026-05-05 11:46 | 51.62554 | 11.25927 | 32550 ft | 446 kts | 158° |
| 2026-05-05 11:47 | 51.59812 | 11.28253 | 33000 ft | 445 kts | 158° |
| 2026-05-05 11:47 | 51.57106 | 11.30540 | 33384 ft | 444 kts | 158° |
| 2026-05-05 11:47 | 51.54364 | 11.32852 | 33739 ft | 445 kts | 158° |
| 2026-05-05 11:47 | 51.51625 | 11.35161 | 34088 ft | 445 kts | 158° |
| 2026-05-05 11:48 | 51.46159 | 11.39764 | 34824 ft | 442 kts | 158° |
| 2026-05-05 11:48 | 51.43443 | 11.42045 | 35171 ft | 441 kts | 158° |
| 2026-05-05 11:48 | 51.40649 | 11.44025 | 35435 ft | 435 kts | 167° |
| 2026-05-05 11:49 | 51.37743 | 11.45248 | 35719 ft | 429 kts | 175° |
| 2026-05-05 11:49 | 51.34797 | 11.45727 | 36056 ft | 423 kts | 182° |
| 2026-05-05 11:49 | 51.31859 | 11.45923 | 36368 ft | 422 kts | 182° |
| 2026-05-05 11:49 | 51.28916 | 11.46145 | 36658 ft | 423 kts | 182° |
| 2026-05-05 11:50 | 51.26003 | 11.46404 | 36934 ft | 424 kts | 181° |
| 2026-05-05 11:50 | 51.23025 | 11.46700 | 37284 ft | 422 kts | 181° |
| 2026-05-05 11:50 | 51.20145 | 11.46996 | 37740 ft | 419 kts | 181° |
| 2026-05-05 11:50 | 51.17238 | 11.47291 | 38009 ft | 419 kts | 181° |
| 2026-05-05 11:51 | 51.14326 | 11.47581 | 38257 ft | 420 kts | 181° |
| 2026-05-05 11:51 | 51.11413 | 11.47868 | 38487 ft | 420 kts | 181° |
| 2026-05-05 11:51 | 51.08653 | 11.48141 | 38684 ft | 421 kts | 180° |
| 2026-05-05 11:51 | 51.05739 | 11.48792 | 38842 ft | 426 kts | 172° |
| 2026-05-05 11:52 | 51.00046 | 11.51949 | 38855 ft | 435 kts | 163° |
| 2026-05-05 11:52 | 50.94458 | 11.55537 | 38858 ft | 430 kts | 163° |
| 2026-05-05 11:53 | 50.88947 | 11.59003 | 38858 ft | 426 kts | 163° |
| 2026-05-05 11:53 | 50.83437 | 11.62415 | 38862 ft | 425 kts | 163° |
| 2026-05-05 11:54 | 50.77931 | 11.65810 | 38857 ft | 424 kts | 163° |
| 2026-05-05 11:54 | 50.72425 | 11.69199 | 38852 ft | 425 kts | 163° |
| 2026-05-05 11:55 | 50.66918 | 11.72598 | 38851 ft | 425 kts | 163° |
| 2026-05-05 11:55 | 50.61400 | 11.76025 | 38852 ft | 426 kts | 163° |
| 2026-05-05 11:56 | 50.55876 | 11.79448 | 38857 ft | 427 kts | 163° |
| 2026-05-05 11:56 | 50.50333 | 11.82872 | 38853 ft | 429 kts | 163° |
| 2026-05-05 11:57 | 50.44805 | 11.86277 | 38854 ft | 430 kts | 163° |
| 2026-05-05 11:57 | 50.39222 | 11.89707 | 38859 ft | 432 kts | 163° |
| 2026-05-05 11:58 | 50.33581 | 11.93163 | 38860 ft | 432 kts | 163° |
| 2026-05-05 11:58 | 50.28014 | 11.96567 | 38853 ft | 433 kts | 163° |
| 2026-05-05 11:59 | 50.22402 | 11.99989 | 38853 ft | 433 kts | 163° |
| 2026-05-05 11:59 | 50.16796 | 12.03400 | 38835 ft | 431 kts | 163° |
| 2026-05-05 12:00 | 50.11203 | 12.06794 | 38834 ft | 430 kts | 163° |
| 2026-05-05 12:00 | 50.05627 | 12.10185 | 38827 ft | 430 kts | 162° |
| 2026-05-05 12:01 | 50.00111 | 12.13836 | 38815 ft | 430 kts | 161° |
| 2026-05-05 12:01 | 49.94660 | 12.17517 | 38810 ft | 430 kts | 161° |
| 2026-05-05 12:02 | 49.89172 | 12.21175 | 38812 ft | 429 kts | 161° |
| 2026-05-05 12:02 | 49.83674 | 12.24809 | 38808 ft | 428 kts | 161° |
| 2026-05-05 12:03 | 49.78188 | 12.28426 | 38806 ft | 428 kts | 161° |
| 2026-05-05 12:03 | 49.72728 | 12.32128 | 38795 ft | 431 kts | 156° |
| 2026-05-05 12:04 | 49.67785 | 12.37525 | 38810 ft | 438 kts | 146° |
| 2026-05-05 12:04 | 49.62999 | 12.43415 | 38809 ft | 441 kts | 146° |
| 2026-05-05 12:05 | 49.58207 | 12.49265 | 38800 ft | 443 kts | 146° |
| 2026-05-05 12:05 | 49.53419 | 12.55040 | 38800 ft | 445 kts | 146° |
| 2026-05-05 12:06 | 49.48529 | 12.60898 | 38799 ft | 446 kts | 146° |
| 2026-05-05 12:06 | 49.43628 | 12.66749 | 38790 ft | 446 kts | 146° |
| 2026-05-05 12:07 | 49.38713 | 12.72603 | 38797 ft | 447 kts | 146° |
| 2026-05-05 12:07 | 49.33795 | 12.78445 | 38798 ft | 448 kts | 146° |
| 2026-05-05 12:08 | 49.28894 | 12.84254 | 38797 ft | 448 kts | 146° |
| 2026-05-05 12:08 | 49.23962 | 12.90085 | 38793 ft | 448 kts | 146° |
| 2026-05-05 12:09 | 49.19026 | 12.95904 | 38789 ft | 447 kts | 146° |
| 2026-05-05 12:09 | 49.14100 | 13.01697 | 38803 ft | 446 kts | 146° |
| 2026-05-05 12:10 | 49.09185 | 13.07463 | 38795 ft | 446 kts | 146° |
| 2026-05-05 12:10 | 49.04264 | 13.13220 | 38797 ft | 445 kts | 146° |
| 2026-05-05 12:11 | 48.99345 | 13.18961 | 38793 ft | 444 kts | 146° |
| 2026-05-05 12:11 | 48.94438 | 13.24672 | 38797 ft | 443 kts | 146° |
| 2026-05-05 12:12 | 48.89537 | 13.30363 | 38791 ft | 443 kts | 146° |
| 2026-05-05 12:12 | 48.84657 | 13.36014 | 38789 ft | 443 kts | 146° |
| 2026-05-05 12:13 | 48.79740 | 13.41694 | 38806 ft | 444 kts | 146° |
| 2026-05-05 12:13 | 48.74845 | 13.47335 | 38794 ft | 445 kts | 146° |
| 2026-05-05 12:14 | 48.69911 | 13.53011 | 38805 ft | 445 kts | 146° |
| 2026-05-05 12:14 | 48.64948 | 13.58646 | 38789 ft | 445 kts | 149° |
| 2026-05-05 12:15 | 48.59629 | 13.63353 | 38792 ft | 443 kts | 155° |
| 2026-05-05 12:15 | 48.54196 | 13.67796 | 38803 ft | 444 kts | 155° |
| 2026-05-05 12:16 | 48.48765 | 13.72272 | 38794 ft | 445 kts | 155° |
| 2026-05-05 12:16 | 48.43376 | 13.76769 | 38797 ft | 445 kts | 154° |
| 2026-05-05 12:17 | 48.37959 | 13.81307 | 38796 ft | 446 kts | 154° |
| 2026-05-05 12:17 | 48.37039 | 13.82078 | 38795 ft | 446 kts | 154° |